• Join FlightAware (Why Join?)
  • Login
  • US Flag 
05:17PM EDT


 

Airport Tracker/Info


-or-


 

Live Flight TrackerFlight Track Log ✈ N352DS ✈ 13-Oct-2013 ✈ KXLL - KMJX

Flight Track Log - Related Links

Times and Time Zones

All times are in EDT time to prevent confusion due to time zone crossing. See the N352DS flight status page for this flight to view local times or setup timezone preferences in your user account.

Time Position Orientation Groundspeed Altitude Reporting Facility
EDT Latitude Longitude Course Direction KTS MPH feet Rate Location/Type
11:10AM 40.5833 -75.5500 125° Southeast 83 96 3,300  Level Philadelphia TRACON
11:11AM 40.5667 -75.5333 143° Southeast 79 91 3,800 480 Climbing Philadelphia TRACON
11:12AM 40.5667 -75.5167 90° East 80 92 4,200 420 Climbing Philadelphia TRACON
11:13AM 40.5500 -75.4833 123° Southeast 84 97 4,700 420 Climbing Philadelphia TRACON
11:14AM 40.4816 -75.3205 125° Southeast  Level Estimated
11:14AM 40.5333 -75.4667 143° Southeast 86 99 5,100  Level Philadelphia TRACON
11:15AM 40.4668 -75.2926 125° Southeast  Level Estimated
11:15AM 40.5167 -75.4333 123° Southeast 104 120 5,100  Level Philadelphia TRACON
11:16AM 40.5000 -75.4000 123° Southeast 112 129 5,100  Level Philadelphia TRACON
11:17AM 40.4833 -75.3667 123° Southeast 112 129 5,100  Level Philadelphia TRACON
11:18AM 40.4667 -75.3167 114° Southeast 115 132 5,100  Level Philadelphia TRACON
11:19AM 40.4500 -75.3000 143° Southeast 113 130 5,100  Level Philadelphia TRACON
11:20AM 40.4333 -75.2667 123° Southeast 115 132 5,100  Level Philadelphia TRACON
11:21AM 40.4167 -75.2167 114° Southeast 115 132 5,100  Level Philadelphia TRACON
11:22AM 40.4000 -75.1833 123° Southeast 117 135 5,100  Level Philadelphia TRACON
11:23AM 40.3833 -75.1500 123° Southeast 117 135 5,100  Level Philadelphia TRACON
11:24AM 40.3667 -75.1167 123° Southeast 116 133 5,100  Level Philadelphia TRACON
11:25AM 40.3500 -75.0833 123° Southeast 115 132 5,100  Level Philadelphia TRACON
11:26AM 40.3333 -75.0500 123° Southeast 113 130 5,100  Level Philadelphia TRACON
11:27AM 40.3167 -75.0167 123° Southeast 112 129 5,100  Level Philadelphia TRACON
11:28AM 40.3000 -74.9833 123° Southeast 113 130 5,100  Level Philadelphia TRACON
11:30AM 40.2662 -74.9270 128° Southeast  Level FlightAware Approximate
11:37AM 40.2111 -74.6385 95° East  Level FlightAware Approximate
11:38AM 40.2081 -74.5962 95° East  Level FlightAware Approximate
11:39AM 40.2051 -74.5538 95° East  Level FlightAware Approximate
11:40AM 40.2020 -74.5115 95° East  Level FlightAware Approximate
11:41AM 40.1898 -74.4782 159° South  Level FlightAware Approximate
11:42AM 40.1598 -74.4621 153° Southeast  Level FlightAware Approximate
11:43AM 40.1308 -74.4428 153° Southeast  Level FlightAware Approximate
11:44AM 40.1019 -74.4235 153° Southeast  Level FlightAware Approximate
11:45AM 40.0730 -74.4042 153° Southeast  Level FlightAware Approximate
11:46AM 40.0465 -74.3798 143° Southeast  Level FlightAware Approximate
11:47AM 40.0207 -74.3540 143° Southeast  Level FlightAware Approximate
11:48AM 39.9910 -74.3372 159° South  Level FlightAware Approximate
11:49AM 39.9623 -74.3176 150° Southeast  Level FlightAware Approximate
11:50AM 39.9342 -74.2964 150° Southeast  Level FlightAware Approximate
11:51AM 39.9275 -74.2924 150° Southeast  Level Estimated
11:52AM 39.9275 -74.2924 150° Southeast  Level Estimated
11:53AM 39.9275 -74.2924 150° Southeast  Level Estimated
11:54AM 39.9275 -74.2924 150° Southeast  Level Estimated
11:55AM 39.9275 -74.2924 150° Southeast  Level Estimated
11:56AM 39.9275 -74.2924 150° Southeast  Level Estimated
11:57AM 39.9275 -74.2924 150° Southeast  Level Estimated
11:58AM 39.9275 -74.2924 150° Southeast  Level Estimated
11:59AM 39.9275 -74.2924 150° Southeast  Level Estimated
12:00PM 39.9275 -74.2924 150° Southeast  Level Estimated
12:01PM 39.9275 -74.2924 150° Southeast  Level Estimated
12:02PM 39.9275 -74.2924 150° Southeast  Level Estimated
12:03PM 39.9275 -74.2924 150° Southeast  Level Estimated
12:04PM 39.9275 -74.2924 150° Southeast  Level Estimated
12:05PM 39.9275 -74.2924 150° Southeast  Level Estimated
12:06PM 39.9275 -74.2924 150° Southeast  Level Estimated
12:07PM 39.9275 -74.2924 150° Southeast  Level Estimated